Gaschem Jade — ELSU9 — position and weather

sailwx.info

Track history (hours):
 
Tides and Currents Weather Stations Pressure Air Temp Water Temp Dewpoint Dewpoint Depression Visibility Wind Speed Wind Dir Waves Ship Positions

Gaschem Jade

Last reported at 2014-Aug-21 15:16 UTC. Time now 2014-Aug-23 19:20 UTC.
Position N 36°11' W 001°25'.

Length 113.2 m; beam 15.9 m; draft 6.1 m.

Type: Ship. MMSI: 636090168.

Date/timePositionNaut miles runAvg speedWind from/ knotsBaromVisibWave heightAir tempDewpointWater temp
2014-Aug-21 15:16N 36°11' W 001°25'192 4.0
2014-Aug-19 15:28N 36°55' E 002°28'3310.5
2014-Aug-19 12:19N 37°02' E 003°08'1210.1
2014-Aug-19 11:09N 37°06' E 003°22'710.1
2014-Aug-19 10:29N 37°08' E 003°30'7610.3
2014-Aug-19 03:07N 37°15' E 005°05'610.6
2014-Aug-19 02:31N 37°15' E 005°13'2311.0
2014-Aug-19 00:23N 37°15' E 005°42'1111.9
2014-Aug-18 23:30N 37°15' E 005°55'1211.5
2014-Aug-18 22:25N 37°15' E 006°11'3511.4
2014-Aug-18 19:23N 37°19' E 006°54'4612.0
2014-Aug-18 15:33N 37°16' E 007°52'5811.3
2014-Aug-18 10:25N 37°24' E 009°04'2511.3
2014-Aug-18 08:12N 37°31' E 009°35'711.0
2014-Aug-18 07:32N 37°34' E 009°43'2510.4
2014-Aug-18 05:09N 37°38' E 010°14'610.3
2014-Aug-18 04:34N 37°36' E 010°21'1110.9
2014-Aug-18 03:32N 37°26' E 010°27'  
2014-Aug-12 08:32N 37°13' E 003°57'1410.6
2014-Aug-12 07:12N 37°10' E 003°40'710.3
2014-Aug-12 06:33N 37°08' E 003°31'2210.2
2014-Aug-12 04:21N 37°01' E 003°05'1310.6
2014-Aug-12 03:05N 36°58' E 002°48'17 9.6
2014-Aug-12 01:16N 36°54' E 002°27'8 8.9
2014-Aug-12 00:25N 36°52' E 002°18'8 9.1
2014-Aug-11 23:33N 36°49' E 002°09'11 9.7
2014-Aug-11 22:24N 36°48' E 001°55'3010.6
2014-Aug-11 19:33N 36°44' E 001°18'1210.5
2014-Aug-11 18:27N 36°41' E 001°04'  
Track history (hours):
 
Tides and Currents Weather Stations Pressure Air Temp Water Temp Dewpoint Dewpoint Depression Visibility Wind Speed Wind Dir Waves Ship Positions

Gaschem Jade

Last reported at 2014-Aug-21 15:16 UTC. Time now 2014-Aug-23 19:20 UTC.
Position N 36°11' W 001°25'.

Length 113.2 m; beam 15.9 m; draft 6.1 m.

Type: Ship. MMSI: 636090168.

Date/timePositionNaut miles runAvg speedWind from/ knotsBaromVisibWave heightAir tempDewpointWater temp
2014-Aug-21 15:16N 36°11' W 001°25'192 4.0
2014-Aug-19 15:28N 36°55' E 002°28'3310.5
2014-Aug-19 12:19N 37°02' E 003°08'1210.1
2014-Aug-19 11:09N 37°06' E 003°22'710.1
2014-Aug-19 10:29N 37°08' E 003°30'7610.3
2014-Aug-19 03:07N 37°15' E 005°05'610.6
2014-Aug-19 02:31N 37°15' E 005°13'2311.0
2014-Aug-19 00:23N 37°15' E 005°42'1111.9
2014-Aug-18 23:30N 37°15' E 005°55'1211.5
2014-Aug-18 22:25N 37°15' E 006°11'3511.4
2014-Aug-18 19:23N 37°19' E 006°54'4612.0
2014-Aug-18 15:33N 37°16' E 007°52'5811.3
2014-Aug-18 10:25N 37°24' E 009°04'2511.3
2014-Aug-18 08:12N 37°31' E 009°35'711.0
2014-Aug-18 07:32N 37°34' E 009°43'2510.4
2014-Aug-18 05:09N 37°38' E 010°14'610.3
2014-Aug-18 04:34N 37°36' E 010°21'1110.9
2014-Aug-18 03:32N 37°26' E 010°27'  
2014-Aug-12 08:32N 37°13' E 003°57'1410.6
2014-Aug-12 07:12N 37°10' E 003°40'710.3
2014-Aug-12 06:33N 37°08' E 003°31'2210.2
2014-Aug-12 04:21N 37°01' E 003°05'1310.6
2014-Aug-12 03:05N 36°58' E 002°48'17 9.6
2014-Aug-12 01:16N 36°54' E 002°27'8 8.9
2014-Aug-12 00:25N 36°52' E 002°18'8 9.1
2014-Aug-11 23:33N 36°49' E 002°09'11 9.7
2014-Aug-11 22:24N 36°48' E 001°55'3010.6
2014-Aug-11 19:33N 36°44' E 001°18'1210.5
2014-Aug-11 18:27N 36°41' E 001°04'  

Dump ship's entire track history